sensor_id;sensor_type;location;lat;lon;timestamp;temperature;humidity
65421;DHT22;52028;50.658;14.004;2022-11-30T00:00:55;5.73;76.28
65421;DHT22;52028;50.658;14.004;2022-11-30T00:03:21;5.73;76.50
65421;DHT22;52028;50.658;14.004;2022-11-30T00:05:46;5.76;77.15
65421;DHT22;52028;50.658;14.004;2022-11-30T00:08:12;5.74;77.74
65421;DHT22;52028;50.658;14.004;2022-11-30T00:10:39;5.74;77.47
65421;DHT22;52028;50.658;14.004;2022-11-30T00:13:04;5.81;76.88
65421;DHT22;52028;50.658;14.004;2022-11-30T00:15:29;5.70;77.28
65421;DHT22;52028;50.658;14.004;2022-11-30T00:17:56;5.72;76.95
65421;DHT22;52028;50.658;14.004;2022-11-30T00:20:22;5.66;77.07
65421;DHT22;52028;50.658;14.004;2022-11-30T00:22:47;5.72;77.06
65421;DHT22;52028;50.658;14.004;2022-11-30T00:25:12;5.79;77.18
65421;DHT22;52028;50.658;14.004;2022-11-30T00:27:38;5.73;77.15
65421;DHT22;52028;50.658;14.004;2022-11-30T00:30:03;5.55;77.72
65421;DHT22;52028;50.658;14.004;2022-11-30T00:32:30;5.58;76.92
65421;DHT22;52028;50.658;14.004;2022-11-30T00:34:55;5.58;75.02
65421;DHT22;52028;50.658;14.004;2022-11-30T00:37:20;5.46;75.49
65421;DHT22;52028;50.658;14.004;2022-11-30T00:39:46;5.34;75.78
65421;DHT22;52028;50.658;14.004;2022-11-30T00:42:12;5.27;76.29
65421;DHT22;52028;50.658;14.004;2022-11-30T00:44:37;5.27;76.57
65421;DHT22;52028;50.658;14.004;2022-11-30T00:47:03;5.24;76.60
65421;DHT22;52028;50.658;14.004;2022-11-30T00:49:28;5.41;76.21
65421;DHT22;52028;50.658;14.004;2022-11-30T00:51:53;5.56;75.57
65421;DHT22;52028;50.658;14.004;2022-11-30T00:54:19;5.53;75.57
65421;DHT22;52028;50.658;14.004;2022-11-30T00:56:44;5.60;75.72
65421;DHT22;52028;50.658;14.004;2022-11-30T00:59:09;5.66;75.21
65421;DHT22;52028;50.658;14.004;2022-11-30T01:01:35;5.42;75.65
65421;DHT22;52028;50.658;14.004;2022-11-30T01:04:01;5.21;76.59
65421;DHT22;52028;50.658;14.004;2022-11-30T01:06:26;5.04;77.47
65421;DHT22;52028;50.658;14.004;2022-11-30T01:08:52;5.18;77.88
65421;DHT22;52028;50.658;14.004;2022-11-30T01:13:47;5.35;77.73
65421;DHT22;52028;50.658;14.004;2022-11-30T01:16:18;5.23;77.73
65421;DHT22;52028;50.658;14.004;2022-11-30T01:18:44;5.31;78.07
65421;DHT22;52028;50.658;14.004;2022-11-30T01:21:13;5.26;78.14
65421;DHT22;52028;50.658;14.004;2022-11-30T01:23:39;5.10;78.39
65421;DHT22;52028;50.658;14.004;2022-11-30T01:26:05;5.10;77.75
65421;DHT22;52028;50.658;14.004;2022-11-30T01:28:32;5.14;77.89
65421;DHT22;52028;50.658;14.004;2022-11-30T01:30:59;5.20;77.51
65421;DHT22;52028;50.658;14.004;2022-11-30T01:33:24;5.10;77.91
65421;DHT22;52028;50.658;14.004;2022-11-30T01:36:03;4.97;78.17
65421;DHT22;52028;50.658;14.004;2022-11-30T01:38:34;4.93;78.34
65421;DHT22;52028;50.658;14.004;2022-11-30T01:41:01;4.93;78.28
65421;DHT22;52028;50.658;14.004;2022-11-30T01:43:42;4.92;77.99
65421;DHT22;52028;50.658;14.004;2022-11-30T01:49:05;4.83;78.90
65421;DHT22;52028;50.658;14.004;2022-11-30T01:54:08;4.80;78.62
65421;DHT22;52028;50.658;14.004;2022-11-30T01:56:36;4.73;78.26
65421;DHT22;52028;50.658;14.004;2022-11-30T01:59:02;4.82;78.34
65421;DHT22;52028;50.658;14.004;2022-11-30T02:01:27;4.90;78.28
65421;DHT22;52028;50.658;14.004;2022-11-30T02:04:07;4.92;78.09
65421;DHT22;52028;50.658;14.004;2022-11-30T02:06:34;4.83;78.31
65421;DHT22;52028;50.658;14.004;2022-11-30T02:09:00;4.79;78.61
65421;DHT22;52028;50.658;14.004;2022-11-30T02:11:26;4.83;77.55
65421;DHT22;52028;50.658;14.004;2022-11-30T02:13:58;4.94;77.46
65421;DHT22;52028;50.658;14.004;2022-11-30T02:31:30;4.89;78.43
65421;DHT22;52028;50.658;14.004;2022-11-30T02:34:01;4.89;78.43
65421;DHT22;52028;50.658;14.004;2022-11-30T02:36:27;4.94;78.37
65421;DHT22;52028;50.658;14.004;2022-11-30T02:38:54;4.90;78.28
65421;DHT22;52028;50.658;14.004;2022-11-30T02:41:20;4.89;78.12
65421;DHT22;52028;50.658;14.004;2022-11-30T02:43:45;4.86;78.79
65421;DHT22;52028;50.658;14.004;2022-11-30T02:46:45;5.04;77.88
65421;DHT22;52028;50.658;14.004;2022-11-30T02:49:21;5.06;77.96
65421;DHT22;52028;50.658;14.004;2022-11-30T02:51:50;4.92;78.32
65421;DHT22;52028;50.658;14.004;2022-11-30T02:54:17;4.83;78.79
65421;DHT22;52028;50.658;14.004;2022-11-30T02:56:43;4.73;78.63
65421;DHT22;52028;50.658;14.004;2022-11-30T02:59:08;4.65;78.92
65421;DHT22;52028;50.658;14.004;2022-11-30T03:01:34;4.62;79.12
65421;DHT22;52028;50.658;14.004;2022-11-30T03:04:00;4.64;79.34
65421;DHT22;52028;50.658;14.004;2022-11-30T03:06:25;4.61;79.64
65421;DHT22;52028;50.658;14.004;2022-11-30T03:08:50;4.66;79.24
65421;DHT22;52028;50.658;14.004;2022-11-30T03:11:16;4.80;78.85
65421;DHT22;52028;50.658;14.004;2022-11-30T03:13:41;4.66;78.82
65421;DHT22;52028;50.658;14.004;2022-11-30T03:16:08;4.75;78.68
65421;DHT22;52028;50.658;14.004;2022-11-30T03:18:34;4.83;78.18
65421;DHT22;52028;50.658;14.004;2022-11-30T03:20:59;4.89;77.88
65421;DHT22;52028;50.658;14.004;2022-11-30T03:23:25;4.97;77.35
65421;DHT22;52028;50.658;14.004;2022-11-30T03:25:50;5.01;76.98
65421;DHT22;52028;50.658;14.004;2022-11-30T03:28:15;4.87;76.95
65421;DHT22;52028;50.658;14.004;2022-11-30T03:30:47;4.90;77.27
65421;DHT22;52028;50.658;14.004;2022-11-30T03:33:12;4.89;77.58
65421;DHT22;52028;50.658;14.004;2022-11-30T03:35:38;4.92;77.86
65421;DHT22;52028;50.658;14.004;2022-11-30T03:38:03;4.97;77.67
65421;DHT22;52028;50.658;14.004;2022-11-30T03:40:28;4.93;77.24
65421;DHT22;52028;50.658;14.004;2022-11-30T03:42:54;5.06;77.22
65421;DHT22;52028;50.658;14.004;2022-11-30T03:45:19;4.92;77.19
65421;DHT22;52028;50.658;14.004;2022-11-30T03:47:44;4.90;77.11
65421;DHT22;52028;50.658;14.004;2022-11-30T03:50:10;4.77;77.13
65421;DHT22;52028;50.658;14.004;2022-11-30T03:52:35;4.55;77.90
65421;DHT22;52028;50.658;14.004;2022-11-30T03:55:00;4.47;78.25
65421;DHT22;52028;50.658;14.004;2022-11-30T03:57:26;4.37;78.57
65421;DHT22;52028;50.658;14.004;2022-11-30T03:59:51;4.37;78.28
65421;DHT22;52028;50.658;14.004;2022-11-30T04:02:16;4.36;78.42
65421;DHT22;52028;50.658;14.004;2022-11-30T04:04:42;4.28;78.57
65421;DHT22;52028;50.658;14.004;2022-11-30T04:07:07;4.25;78.45
65421;DHT22;52028;50.658;14.004;2022-11-30T04:09:32;4.20;78.70
65421;DHT22;52028;50.658;14.004;2022-11-30T04:11:57;4.11;79.16
65421;DHT22;52028;50.658;14.004;2022-11-30T04:14:23;4.14;78.99
65421;DHT22;52028;50.658;14.004;2022-11-30T04:16:48;4.20;78.88
65421;DHT22;52028;50.658;14.004;2022-11-30T04:19:13;4.03;79.12
65421;DHT22;52028;50.658;14.004;2022-11-30T04:21:39;4.00;79.31
65421;DHT22;52028;50.658;14.004;2022-11-30T04:24:05;3.93;79.35
65421;DHT22;52028;50.658;14.004;2022-11-30T04:26:30;3.87;79.50
65421;DHT22;52028;50.658;14.004;2022-11-30T04:28:55;3.86;79.72
65421;DHT22;52028;50.658;14.004;2022-11-30T04:31:21;3.71;80.47
65421;DHT22;52028;50.658;14.004;2022-11-30T04:33:46;3.61;80.68
65421;DHT22;52028;50.658;14.004;2022-11-30T04:36:16;3.57;80.69
65421;DHT22;52028;50.658;14.004;2022-11-30T04:38:41;3.52;80.65
65421;DHT22;52028;50.658;14.004;2022-11-30T04:41:07;3.45;81.06
65421;DHT22;52028;50.658;14.004;2022-11-30T04:43:33;3.47;81.03
65421;DHT22;52028;50.658;14.004;2022-11-30T04:45:58;3.37;81.40
65421;DHT22;52028;50.658;14.004;2022-11-30T04:48:25;3.38;81.54
65421;DHT22;52028;50.658;14.004;2022-11-30T04:50:59;3.31;81.81
65421;DHT22;52028;50.658;14.004;2022-11-30T04:53:31;3.19;82.32
65421;DHT22;52028;50.658;14.004;2022-11-30T04:55:56;3.20;82.35
65421;DHT22;52028;50.658;14.004;2022-11-30T04:58:32;3.16;82.40
65421;DHT22;52028;50.658;14.004;2022-11-30T05:01:22;3.14;82.41
65421;DHT22;52028;50.658;14.004;2022-11-30T05:03:52;3.12;82.54
65421;DHT22;52028;50.658;14.004;2022-11-30T05:06:18;3.07;82.46
65421;DHT22;52028;50.658;14.004;2022-11-30T05:08:43;3.04;82.54
65421;DHT22;52028;50.658;14.004;2022-11-30T05:11:08;2.89;83.05
65421;DHT22;52028;50.658;14.004;2022-11-30T05:13:34;2.79;83.43
65421;DHT22;52028;50.658;14.004;2022-11-30T05:15:59;2.84;83.29
65421;DHT22;52028;50.658;14.004;2022-11-30T05:18:24;2.81;83.36
65421;DHT22;52028;50.658;14.004;2022-11-30T05:20:51;2.75;83.41
65421;DHT22;52028;50.658;14.004;2022-11-30T05:23:17;2.68;83.81
65421;DHT22;52028;50.658;14.004;2022-11-30T05:25:43;2.57;83.75
65421;DHT22;52028;50.658;14.004;2022-11-30T05:28:08;2.52;84.17
65421;DHT22;52028;50.658;14.004;2022-11-30T05:30:34;2.50;84.61
65421;DHT22;52028;50.658;14.004;2022-11-30T05:32:59;2.41;84.95
65421;DHT22;52028;50.658;14.004;2022-11-30T05:35:25;2.34;85.45
65421;DHT22;52028;50.658;14.004;2022-11-30T05:37:50;2.29;85.89
65421;DHT22;52028;50.658;14.004;2022-11-30T05:40:16;2.24;85.96
65421;DHT22;52028;50.658;14.004;2022-11-30T05:42:42;2.26;85.72
65421;DHT22;52028;50.658;14.004;2022-11-30T05:45:07;2.29;85.31
65421;DHT22;52028;50.658;14.004;2022-11-30T05:47:33;2.26;85.61
65421;DHT22;52028;50.658;14.004;2022-11-30T05:49:58;2.23;85.75
65421;DHT22;52028;50.658;14.004;2022-11-30T05:52:24;2.24;85.86
65421;DHT22;52028;50.658;14.004;2022-11-30T05:54:49;2.23;86.09
65421;DHT22;52028;50.658;14.004;2022-11-30T05:57:14;2.23;86.06
65421;DHT22;52028;50.658;14.004;2022-11-30T05:59:39;2.17;86.10
65421;DHT22;52028;50.658;14.004;2022-11-30T06:02:05;2.14;86.16
65421;DHT22;52028;50.658;14.004;2022-11-30T06:04:32;2.23;85.96
65421;DHT22;52028;50.658;14.004;2022-11-30T06:06:57;2.16;85.89
65421;DHT22;52028;50.658;14.004;2022-11-30T06:09:23;2.12;86.10
65421;DHT22;52028;50.658;14.004;2022-11-30T06:11:48;1.92;86.48
65421;DHT22;52028;50.658;14.004;2022-11-30T06:14:13;2.02;86.57
65421;DHT22;52028;50.658;14.004;2022-11-30T06:16:39;1.96;86.43
65421;DHT22;52028;50.658;14.004;2022-11-30T06:19:04;1.94;86.29
65421;DHT22;52028;50.658;14.004;2022-11-30T06:21:29;1.77;86.78
65421;DHT22;52028;50.658;14.004;2022-11-30T06:23:56;1.61;87.32
65421;DHT22;52028;50.658;14.004;2022-11-30T06:26:21;1.61;87.46
65421;DHT22;52028;50.658;14.004;2022-11-30T06:28:47;1.61;87.44
65421;DHT22;52028;50.658;14.004;2022-11-30T06:31:12;1.52;87.55
65421;DHT22;52028;50.658;14.004;2022-11-30T06:33:37;1.44;87.72
65421;DHT22;52028;50.658;14.004;2022-11-30T06:36:03;1.39;87.92
65421;DHT22;52028;50.658;14.004;2022-11-30T06:38:29;1.32;88.19
65421;DHT22;52028;50.658;14.004;2022-11-30T06:41:01;1.32;88.30
65421;DHT22;52028;50.658;14.004;2022-11-30T06:43:31;1.30;88.47
65421;DHT22;52028;50.658;14.004;2022-11-30T06:45:56;1.29;88.48
65421;DHT22;52028;50.658;14.004;2022-11-30T06:48:22;1.26;88.49
65421;DHT22;52028;50.658;14.004;2022-11-30T06:50:47;1.24;88.63
65421;DHT22;52028;50.658;14.004;2022-11-30T06:53:12;1.26;88.69
65421;DHT22;52028;50.658;14.004;2022-11-30T06:55:38;1.16;88.71
65421;DHT22;52028;50.658;14.004;2022-11-30T06:58:07;1.10;88.88
65421;DHT22;52028;50.658;14.004;2022-11-30T07:00:33;1.12;89.08
65421;DHT22;52028;50.658;14.004;2022-11-30T07:02:59;1.20;89.10
65421;DHT22;52028;50.658;14.004;2022-11-30T07:05:24;1.23;88.93
65421;DHT22;52028;50.658;14.004;2022-11-30T07:07:50;1.12;88.99
65421;DHT22;52028;50.658;14.004;2022-11-30T07:10:15;0.98;89.45
65421;DHT22;52028;50.658;14.004;2022-11-30T07:12:40;0.98;89.37
65421;DHT22;52028;50.658;14.004;2022-11-30T07:15:06;1.06;89.36
65421;DHT22;52028;50.658;14.004;2022-11-30T07:17:31;1.05;89.32
65421;DHT22;52028;50.658;14.004;2022-11-30T07:19:57;1.00;89.44
65421;DHT22;52028;50.658;14.004;2022-11-30T07:22:22;1.06;89.58
65421;DHT22;52028;50.658;14.004;2022-11-30T07:24:47;1.20;89.40
65421;DHT22;52028;50.658;14.004;2022-11-30T07:27:31;1.12;89.40
65421;DHT22;52028;50.658;14.004;2022-11-30T07:29:57;1.10;89.53
65421;DHT22;52028;50.658;14.004;2022-11-30T07:32:22;1.12;89.38
65421;DHT22;52028;50.658;14.004;2022-11-30T07:34:47;1.16;89.24
65421;DHT22;52028;50.658;14.004;2022-11-30T07:37:13;1.23;89.09
65421;DHT22;52028;50.658;14.004;2022-11-30T07:39:38;1.27;89.01
65421;DHT22;52028;50.658;14.004;2022-11-30T07:42:03;1.27;88.91
65421;DHT22;52028;50.658;14.004;2022-11-30T07:44:29;1.40;88.78
65421;DHT22;52028;50.658;14.004;2022-11-30T07:46:54;1.40;88.84
65421;DHT22;52028;50.658;14.004;2022-11-30T07:49:19;1.51;88.87
65421;DHT22;52028;50.658;14.004;2022-11-30T07:51:45;1.60;88.47
65421;DHT22;52028;50.658;14.004;2022-11-30T07:54:10;1.61;87.90
65421;DHT22;52028;50.658;14.004;2022-11-30T07:56:36;1.58;88.07
65421;DHT22;52028;50.658;14.004;2022-11-30T07:59:04;1.60;88.27
65421;DHT22;52028;50.658;14.004;2022-11-30T08:01:31;1.68;88.42
65421;DHT22;52028;50.658;14.004;2022-11-30T08:03:57;1.88;88.24
65421;DHT22;52028;50.658;14.004;2022-11-30T08:06:25;2.03;87.87
65421;DHT22;52028;50.658;14.004;2022-11-30T08:08:52;2.03;87.39
65421;DHT22;52028;50.658;14.004;2022-11-30T08:11:20;2.01;87.21
65421;DHT22;52028;50.658;14.004;2022-11-30T08:13:46;1.95;86.90
65421;DHT22;52028;50.658;14.004;2022-11-30T08:16:17;2.01;86.69
65421;DHT22;52028;50.658;14.004;2022-11-30T08:18:43;2.02;86.62
65421;DHT22;52028;50.658;14.004;2022-11-30T08:21:10;1.94;86.81
65421;DHT22;52028;50.658;14.004;2022-11-30T08:23:38;1.98;87.02
65421;DHT22;52028;50.658;14.004;2022-11-30T08:26:15;2.09;86.90
65421;DHT22;52028;50.658;14.004;2022-11-30T08:28:42;2.06;86.79
65421;DHT22;52028;50.658;14.004;2022-11-30T08:31:10;2.09;86.95
65421;DHT22;52028;50.658;14.004;2022-11-30T08:33:36;2.06;87.01
65421;DHT22;52028;50.658;14.004;2022-11-30T08:38:36;2.01;87.21
65421;DHT22;52028;50.658;14.004;2022-11-30T08:41:03;2.22;87.26
65421;DHT22;52028;50.658;14.004;2022-11-30T08:43:28;2.17;86.90
65421;DHT22;52028;50.658;14.004;2022-11-30T08:45:54;2.16;86.91
65421;DHT22;52028;50.658;14.004;2022-11-30T08:48:19;2.13;86.69
65421;DHT22;52028;50.658;14.004;2022-11-30T08:50:45;2.13;87.20
65421;DHT22;52028;50.658;14.004;2022-11-30T08:53:10;2.31;87.07
65421;DHT22;52028;50.658;14.004;2022-11-30T08:55:36;2.37;86.68
65421;DHT22;52028;50.658;14.004;2022-11-30T08:58:01;2.44;86.09
65421;DHT22;52028;50.658;14.004;2022-11-30T09:00:26;2.61;85.83
65421;DHT22;52028;50.658;14.004;2022-11-30T09:02:52;2.58;85.56
65421;DHT22;52028;50.658;14.004;2022-11-30T09:05:17;2.66;85.53
65421;DHT22;52028;50.658;14.004;2022-11-30T09:07:43;2.64;85.66
65421;DHT22;52028;50.658;14.004;2022-11-30T09:10:08;2.62;85.71
65421;DHT22;52028;50.658;14.004;2022-11-30T09:12:35;2.64;85.23
65421;DHT22;52028;50.658;14.004;2022-11-30T09:15:01;2.59;85.43
65421;DHT22;52028;50.658;14.004;2022-11-30T09:17:26;2.61;85.24
65421;DHT22;52028;50.658;14.004;2022-11-30T09:19:52;2.65;85.20
65421;DHT22;52028;50.658;14.004;2022-11-30T09:22:18;2.76;85.20
65421;DHT22;52028;50.658;14.004;2022-11-30T09:24:44;2.95;84.80
65421;DHT22;52028;50.658;14.004;2022-11-30T09:27:09;2.89;84.30
65421;DHT22;52028;50.658;14.004;2022-11-30T09:29:35;2.86;84.46
65421;DHT22;52028;50.658;14.004;2022-11-30T09:32:00;2.91;84.42
65421;DHT22;52028;50.658;14.004;2022-11-30T09:34:25;2.96;84.09
65421;DHT22;52028;50.658;14.004;2022-11-30T09:36:50;3.00;83.86
65421;DHT22;52028;50.658;14.004;2022-11-30T09:39:16;3.23;83.97
65421;DHT22;52028;50.658;14.004;2022-11-30T09:49:55;3.93;80.94
65421;DHT22;52028;50.658;14.004;2022-11-30T09:52:27;4.00;79.73
65421;DHT22;52028;50.658;14.004;2022-11-30T09:54:58;4.22;78.89
65421;DHT22;52028;50.658;14.004;2022-11-30T09:57:36;4.38;78.67
65421;DHT22;52028;50.658;14.004;2022-11-30T10:00:13;4.40;78.66
65421;DHT22;52028;50.658;14.004;2022-11-30T10:02:39;4.45;78.25
65421;DHT22;52028;50.658;14.004;2022-11-30T10:05:24;4.47;78.46
65421;DHT22;52028;50.658;14.004;2022-11-30T10:10:39;4.64;77.86
65421;DHT22;52028;50.658;14.004;2022-11-30T10:19:14;4.68;77.15
65421;DHT22;52028;50.658;14.004;2022-11-30T10:26:55;4.64;77.03
65421;DHT22;52028;50.658;14.004;2022-11-30T10:29:26;4.65;77.24
65421;DHT22;52028;50.658;14.004;2022-11-30T10:31:56;4.76;77.09
65421;DHT22;52028;50.658;14.004;2022-11-30T10:34:26;4.75;76.39
65421;DHT22;52028;50.658;14.004;2022-11-30T10:37:18;4.66;76.67
65421;DHT22;52028;50.658;14.004;2022-11-30T10:44:52;4.80;77.47
65421;DHT22;52028;50.658;14.004;2022-11-30T10:47:24;4.96;76.50
65421;DHT22;52028;50.658;14.004;2022-11-30T10:49:51;5.10;75.68
65421;DHT22;52028;50.658;14.004;2022-11-30T10:52:30;5.27;75.21
65421;DHT22;52028;50.658;14.004;2022-11-30T10:54:56;5.58;74.21
65421;DHT22;52028;50.658;14.004;2022-11-30T10:57:25;5.73;73.22
65421;DHT22;52028;50.658;14.004;2022-11-30T10:59:53;5.94;72.77
65421;DHT22;52028;50.658;14.004;2022-11-30T11:02:41;6.26;71.45
65421;DHT22;52028;50.658;14.004;2022-11-30T11:08:23;6.79;69.86
65421;DHT22;52028;50.658;14.004;2022-11-30T11:10:49;6.79;68.93
65421;DHT22;52028;50.658;14.004;2022-11-30T11:16:02;6.56;69.00
65421;DHT22;52028;50.658;14.004;2022-11-30T11:18:29;6.04;69.89
65421;DHT22;52028;50.658;14.004;2022-11-30T11:26:02;5.56;72.64
65421;DHT22;52028;50.658;14.004;2022-11-30T11:28:28;5.60;72.23
65421;DHT22;52028;50.658;14.004;2022-11-30T11:30:55;5.58;72.22
65421;DHT22;52028;50.658;14.004;2022-11-30T11:33:28;5.34;73.32
65421;DHT22;52028;50.658;14.004;2022-11-30T11:36:29;5.39;73.01
65421;DHT22;52028;50.658;14.004;2022-11-30T11:38:46;5.21;73.44
65421;DHT22;52028;50.658;14.004;2022-11-30T11:44:17;5.14;74.11
65421;DHT22;52028;50.658;14.004;2022-11-30T11:46:57;5.26;73.60
65421;DHT22;52028;50.658;14.004;2022-11-30T11:49:25;5.49;73.82
65421;DHT22;52028;50.658;14.004;2022-11-30T11:52:17;5.79;72.81
65421;DHT22;52028;50.658;14.004;2022-11-30T11:54:52;6.00;71.92
65421;DHT22;52028;50.658;14.004;2022-11-30T11:57:22;6.29;71.17
65421;DHT22;52028;50.658;14.004;2022-11-30T12:00:06;6.62;70.61
65421;DHT22;52028;50.658;14.004;2022-11-30T12:05:29;7.03;68.34
65421;DHT22;52028;50.658;14.004;2022-11-30T12:08:24;7.01;67.93
65421;DHT22;52028;50.658;14.004;2022-11-30T12:10:57;6.91;68.27
65421;DHT22;52028;50.658;14.004;2022-11-30T12:13:37;6.87;68.20
65421;DHT22;52028;50.658;14.004;2022-11-30T12:18:56;7.12;68.02
65421;DHT22;52028;50.658;14.004;2022-11-30T12:27:34;7.26;67.24
65421;DHT22;52028;50.658;14.004;2022-11-30T12:30:12;7.35;67.18
65421;DHT22;52028;50.658;14.004;2022-11-30T12:32:46;7.53;66.67
65421;DHT22;52028;50.658;14.004;2022-11-30T12:35:44;7.58;66.42
65421;DHT22;52028;50.658;14.004;2022-11-30T12:46:53;7.22;67.66
65421;DHT22;52028;50.658;14.004;2022-11-30T12:49:19;7.29;67.90
65421;DHT22;52028;50.658;14.004;2022-11-30T12:52:00;7.35;67.40
65421;DHT22;52028;50.658;14.004;2022-11-30T12:54:45;7.25;67.29
65421;DHT22;52028;50.658;14.004;2022-11-30T12:57:27;7.14;68.08
65421;DHT22;52028;50.658;14.004;2022-11-30T13:02:53;7.01;68.81
65421;DHT22;52028;50.658;14.004;2022-11-30T13:05:49;6.86;68.85
65421;DHT22;52028;50.658;14.004;2022-11-30T13:10:58;6.88;69.52
65421;DHT22;52028;50.658;14.004;2022-11-30T13:13:28;6.77;69.38
65421;DHT22;52028;50.658;14.004;2022-11-30T13:15:55;6.70;69.67
65421;DHT22;52028;50.658;14.004;2022-11-30T13:18:22;6.72;69.88
65421;DHT22;52028;50.658;14.004;2022-11-30T13:21:24;6.83;69.79
65421;DHT22;52028;50.658;14.004;2022-11-30T13:23:56;6.91;69.58
65421;DHT22;52028;50.658;14.004;2022-11-30T13:27:13;6.80;69.58
65421;DHT22;52028;50.658;14.004;2022-11-30T13:29:47;6.73;69.54
65421;DHT22;52028;50.658;14.004;2022-11-30T13:32:14;6.76;69.72
65421;DHT22;52028;50.658;14.004;2022-11-30T13:34:40;6.69;70.32
65421;DHT22;52028;50.658;14.004;2022-11-30T13:37:17;6.68;70.43
65421;DHT22;52028;50.658;14.004;2022-11-30T13:39:54;6.65;70.35
65421;DHT22;52028;50.658;14.004;2022-11-30T13:44:54;6.43;71.33
65421;DHT22;52028;50.658;14.004;2022-11-30T13:47:31;6.34;71.60
65421;DHT22;52028;50.658;14.004;2022-11-30T13:50:04;6.46;71.72
65421;DHT22;52028;50.658;14.004;2022-11-30T14:02:59;6.13;72.25
65421;DHT22;52028;50.658;14.004;2022-11-30T14:05:50;6.18;72.67
65421;DHT22;52028;50.658;14.004;2022-11-30T14:10:51;6.42;71.65
65421;DHT22;52028;50.658;14.004;2022-11-30T14:26:11;6.56;71.45
65421;DHT22;52028;50.658;14.004;2022-11-30T14:28:50;6.54;71.56
65421;DHT22;52028;50.658;14.004;2022-11-30T14:31:23;6.48;71.81
65421;DHT22;52028;50.658;14.004;2022-11-30T14:34:07;6.38;72.15
65421;DHT22;52028;50.658;14.004;2022-11-30T14:36:50;6.35;72.47
65421;DHT22;52028;50.658;14.004;2022-11-30T14:39:23;6.35;72.48
65421;DHT22;52028;50.658;14.004;2022-11-30T14:41:50;6.34;72.22
65421;DHT22;52028;50.658;14.004;2022-11-30T14:44:15;6.26;72.72
65421;DHT22;52028;50.658;14.004;2022-11-30T14:46:40;6.25;73.03
65421;DHT22;52028;50.658;14.004;2022-11-30T14:49:35;6.29;72.65
65421;DHT22;52028;50.658;14.004;2022-11-30T14:52:03;6.25;73.21
65421;DHT22;52028;50.658;14.004;2022-11-30T14:57:27;6.21;72.75
65421;DHT22;52028;50.658;14.004;2022-11-30T14:59:54;6.14;72.91
65421;DHT22;52028;50.658;14.004;2022-11-30T15:02:32;6.04;73.41
65421;DHT22;52028;50.658;14.004;2022-11-30T15:05:00;6.00;73.56
65421;DHT22;52028;50.658;14.004;2022-11-30T15:07:26;5.90;73.86
65421;DHT22;52028;50.658;14.004;2022-11-30T15:10:02;5.94;74.08
65421;DHT22;52028;50.658;14.004;2022-11-30T15:12:28;5.91;74.14
65421;DHT22;52028;50.658;14.004;2022-11-30T15:15:21;5.96;74.16
65421;DHT22;52028;50.658;14.004;2022-11-30T15:18:18;5.98;74.06
65421;DHT22;52028;50.658;14.004;2022-11-30T15:20:56;5.97;74.56
65421;DHT22;52028;50.658;14.004;2022-11-30T15:23:24;5.94;74.30
65421;DHT22;52028;50.658;14.004;2022-11-30T15:26:01;5.97;74.26
65421;DHT22;52028;50.658;14.004;2022-11-30T15:28:39;6.00;74.21
65421;DHT22;52028;50.658;14.004;2022-11-30T15:31:08;5.96;74.36
65421;DHT22;52028;50.658;14.004;2022-11-30T15:33:40;5.93;74.49
65421;DHT22;52028;50.658;14.004;2022-11-30T15:36:06;5.96;74.02
65421;DHT22;52028;50.658;14.004;2022-11-30T15:38:32;5.96;74.33
65421;DHT22;52028;50.658;14.004;2022-11-30T15:41:26;5.93;74.43
65421;DHT22;52028;50.658;14.004;2022-11-30T15:43:53;5.87;74.81
65421;DHT22;52028;50.658;14.004;2022-11-30T15:46:36;5.80;75.02
65421;DHT22;52028;50.658;14.004;2022-11-30T15:51:42;5.65;75.61
65421;DHT22;52028;50.658;14.004;2022-11-30T15:54:08;5.62;75.70
65421;DHT22;52028;50.658;14.004;2022-11-30T15:56:34;5.49;75.95
65421;DHT22;52028;50.658;14.004;2022-11-30T15:59:23;5.49;75.69
65421;DHT22;52028;50.658;14.004;2022-11-30T16:01:58;5.45;75.74
65421;DHT22;52028;50.658;14.004;2022-11-30T16:07:20;5.42;76.21
65421;DHT22;52028;50.658;14.004;2022-11-30T16:09:46;5.42;76.20
65421;DHT22;52028;50.658;14.004;2022-11-30T16:12:28;5.52;75.65
65421;DHT22;52028;50.658;14.004;2022-11-30T16:14:54;5.53;75.70
65421;DHT22;52028;50.658;14.004;2022-11-30T16:17:20;5.56;76.28
65421;DHT22;52028;50.658;14.004;2022-11-30T16:19:45;5.60;75.55
65421;DHT22;52028;50.658;14.004;2022-11-30T16:22:11;5.65;75.20
65421;DHT22;52028;50.658;14.004;2022-11-30T16:24:37;5.59;74.84
65421;DHT22;52028;50.658;14.004;2022-11-30T16:27:15;5.60;75.06
65421;DHT22;52028;50.658;14.004;2022-11-30T16:29:46;5.65;75.03
65421;DHT22;52028;50.658;14.004;2022-11-30T16:32:13;5.67;75.03
65421;DHT22;52028;50.658;14.004;2022-11-30T16:34:39;5.76;74.87
65421;DHT22;52028;50.658;14.004;2022-11-30T16:37:06;5.73;74.68
65421;DHT22;52028;50.658;14.004;2022-11-30T16:39:32;5.63;75.07
65421;DHT22;52028;50.658;14.004;2022-11-30T16:41:57;5.59;75.37
65421;DHT22;52028;50.658;14.004;2022-11-30T16:44:23;5.59;75.63
65421;DHT22;52028;50.658;14.004;2022-11-30T16:46:48;5.55;75.40
65421;DHT22;52028;50.658;14.004;2022-11-30T16:49:15;5.51;75.65
65421;DHT22;52028;50.658;14.004;2022-11-30T16:51:41;5.53;75.91
65421;DHT22;52028;50.658;14.004;2022-11-30T16:54:11;5.55;76.04
65421;DHT22;52028;50.658;14.004;2022-11-30T16:56:38;5.59;75.97
65421;DHT22;52028;50.658;14.004;2022-11-30T16:59:04;5.60;76.13
65421;DHT22;52028;50.658;14.004;2022-11-30T17:01:45;5.59;76.34
65421;DHT22;52028;50.658;14.004;2022-11-30T17:04:16;5.55;76.09
65421;DHT22;52028;50.658;14.004;2022-11-30T17:06:42;5.51;76.40
65421;DHT22;52028;50.658;14.004;2022-11-30T17:09:12;5.52;76.32
65421;DHT22;52028;50.658;14.004;2022-11-30T17:11:38;5.55;76.02
65421;DHT22;52028;50.658;14.004;2022-11-30T17:14:04;5.60;75.90
65421;DHT22;52028;50.658;14.004;2022-11-30T17:16:29;5.62;76.15
65421;DHT22;52028;50.658;14.004;2022-11-30T17:18:55;5.66;76.03
65421;DHT22;52028;50.658;14.004;2022-11-30T17:21:28;5.62;76.68
65421;DHT22;52028;50.658;14.004;2022-11-30T17:23:55;5.63;76.42
65421;DHT22;52028;50.658;14.004;2022-11-30T17:26:20;5.56;76.77
65421;DHT22;52028;50.658;14.004;2022-11-30T17:28:46;5.55;76.94
65421;DHT22;52028;50.658;14.004;2022-11-30T17:31:12;5.56;76.76
65421;DHT22;52028;50.658;14.004;2022-11-30T17:33:38;5.67;76.56
65421;DHT22;52028;50.658;14.004;2022-11-30T17:36:05;5.73;76.37
65421;DHT22;52028;50.658;14.004;2022-11-30T17:38:33;5.63;76.65
65421;DHT22;52028;50.658;14.004;2022-11-30T17:41:02;5.67;76.72
65421;DHT22;52028;50.658;14.004;2022-11-30T17:43:27;5.79;76.35
65421;DHT22;52028;50.658;14.004;2022-11-30T17:45:52;5.80;76.20
65421;DHT22;52028;50.658;14.004;2022-11-30T17:48:18;5.83;76.24
65421;DHT22;52028;50.658;14.004;2022-11-30T17:50:43;5.74;76.55